Time;durP1;ratioP1;P1;durP2;ratioP2;P2;SDS_P1;SDS_P2;PMS_P1;PMS_P2;Temp;Humidity;BMP_temperature;BMP_pressure;BME280_temperature;BME280_humidity;BME280_pressure;Samples;Min_cycle;Max_cycle;Signal;HPM_P1;HPM_P2
2022/07/13 00:02:01;;;;;;;1.25;0.80;;;25.40;13.00;;;;;;5093884;28;20622;-81
2022/07/13 00:04:28;;;;;;;1.13;0.75;;;25.50;13.70;;;;;;5093647;28;20636;-79
2022/07/13 00:06:55;;;;;;;1.02;0.93;;;25.60;14.70;;;;;;5093666;28;20622;-80
2022/07/13 00:09:22;;;;;;;0.70;0.70;;;25.50;14.00;;;;;;5093139;28;20209;-78
2022/07/13 00:11:50;;;;;;;2.17;0.82;;;25.50;14.90;;;;;;5093090;28;20241;-80
2022/07/13 00:14:17;;;;;;;1.10;0.65;;;25.40;13.70;;;;;;5091705;28;20258;-76
2022/07/13 00:16:44;;;;;;;1.10;1.05;;;25.40;15.20;;;;;;5092882;28;20210;-75
2022/07/13 00:19:11;;;;;;;0.93;0.88;;;25.30;15.20;;;;;;5073818;28;20666;-78
2022/07/13 00:21:38;;;;;;;0.90;0.90;;;25.40;16.10;;;;;;5072005;28;20677;-78
2022/07/13 00:24:05;;;;;;;0.70;0.60;;;25.30;14.80;;;;;;5077752;28;20258;-80
2022/07/13 00:26:32;;;;;;;0.80;0.80;;;25.20;14.30;;;;;;5089695;28;20262;-79
2022/07/13 00:29:00;;;;;;;1.00;0.90;;;25.20;15.30;;;;;;5080476;28;20202;-78
2022/07/13 00:31:27;;;;;;;1.45;0.90;;;25.30;15.30;;;;;;5091288;28;20278;-79
2022/07/13 00:33:54;;;;;;;1.30;1.00;;;25.30;15.80;;;;;;5092271;28;20210;-77
2022/07/13 00:36:21;;;;;;;2.90;0.90;;;25.30;25.80;;;;;;5078513;28;20206;-80
2022/07/13 00:38:48;;;;;;;0.85;0.70;;;25.30;15.10;;;;;;5090616;28;20201;-78
2022/07/13 00:41:15;;;;;;;0.80;0.80;;;25.30;17.20;;;;;;5091965;28;20727;-81
2022/07/13 00:43:42;;;;;;;1.45;0.60;;;25.20;15.70;;;;;;5092139;28;20205;-79
2022/07/13 00:46:11;;;;;;;1.38;1.27;;;25.20;15.80;;;;;;5092914;28;20289;-79
2022/07/13 00:48:39;;;;;;;1.65;0.60;;;25.10;16.80;;;;;;5091336;28;20579;-80
2022/07/13 00:51:07;;;;;;;0.70;0.63;;;25.10;17.00;;;;;;5091590;28;20205;-80
2022/07/13 00:53:38;;;;;;;1.10;0.93;;;25.20;16.80;;;;;;5077249;28;20221;-79
2022/07/13 00:56:07;;;;;;;2.08;0.82;;;25.10;16.20;;;;;;5078284;28;20262;-81
2022/07/13 00:58:34;;;;;;;0.88;0.88;;;25.00;18.00;;;;;;5091391;28;20580;-81
2022/07/13 01:01:01;;;;;;;1.00;0.90;;;24.90;1.00;;;;;;5091528;28;20247;-80
2022/07/13 01:03:29;;;;;;;0.93;0.70;;;24.90;16.70;;;;;;5091324;28;20208;-80
2022/07/13 01:05:57;;;;;;;2.47;0.70;;;24.90;17.50;;;;;;5091428;28;20205;-79
2022/07/13 01:08:26;;;;;;;0.90;0.90;;;24.80;17.30;;;;;;5091177;28;20246;-79
2022/07/13 01:10:54;;;;;;;1.50;0.90;;;24.80;16.70;;;;;;5091469;28;20255;-80
2022/07/13 01:13:23;;;;;;;1.30;0.90;;;24.80;17.70;;;;;;5052130;28;1131840;-80
2022/07/13 01:15:50;;;;;;;0.73;0.65;;;24.70;17.70;;;;;;5092415;28;20266;-79
2022/07/13 01:18:17;;;;;;;3.50;2.83;;;24.60;17.90;;;;;;5092313;28;20209;-77
2022/07/13 01:20:46;;;;;;;4.03;3.50;;;24.60;18.10;;;;;;5091990;28;20248;-76
2022/07/13 01:23:15;;;;;;;8.93;8.02;;;24.50;19.60;;;;;;5092494;28;20221;-79
2022/07/13 01:25:42;;;;;;;8.93;8.13;;;24.40;20.60;;;;;;5092552;28;20244;-76
2022/07/13 01:28:10;;;;;;;9.18;8.48;;;24.40;20.10;;;;;;5078154;28;20251;-78
2022/07/13 01:30:37;;;;;;;7.57;6.97;;;24.30;20.50;;;;;;5091790;28;20205;-79
2022/07/13 01:33:04;;;;;;;7.90;7.25;;;24.30;20.90;;;;;;5091669;28;20233;-79
2022/07/13 01:35:31;;;;;;;7.38;6.88;;;24.30;21.60;;;;;;5091705;28;20206;-79
2022/07/13 01:37:58;;;;;;;6.65;6.15;;;24.30;49.50;;;;;;5092123;28;20213;-79
2022/07/13 01:40:27;;;;;;;7.82;7.13;;;24.30;22.80;;;;;;5091933;28;20255;-78
2022/07/13 01:42:54;;;;;;;7.40;6.80;;;24.30;23.20;;;;;;5091138;28;20251;-77
2022/07/13 01:45:23;;;;;;;7.30;6.63;;;24.20;23.40;;;;;;5091417;28;20202;-75
2022/07/13 01:47:51;;;;;;;6.68;6.18;;;24.10;24.70;;;;;;5091842;28;20209;-79
2022/07/13 01:50:20;;;;;;;5.53;5.05;;;24.00;25.20;;;;;;5091121;28;20252;-76
2022/07/13 01:52:47;;;;;;;4.82;4.38;;;24.00;51.30;;;;;;5091676;28;20237;-77
2022/07/13 01:55:15;;;;;;;4.55;4.15;;;23.90;26.00;;;;;;5091654;28;20255;-71
2022/07/13 01:57:44;;;;;;;5.93;4.50;;;24.00;26.20;;;;;;5092007;28;20209;-77
2022/07/13 02:00:14;;;;;;;4.95;4.45;;;23.90;26.80;;;;;;5091646;28;20254;-78
2022/07/13 02:02:42;;;;;;;5.25;3.67;;;23.90;26.60;;;;;;5092134;28;20623;-79
2022/07/13 02:05:10;;;;;;;3.30;3.00;;;23.90;27.20;;;;;;5091753;28;20649;-71
2022/07/13 02:07:38;;;;;;;8.10;3.15;;;23.80;27.70;;;;;;5091054;28;20209;-74
2022/07/13 02:10:06;;;;;;;3.50;3.13;;;23.60;27.60;;;;;;5091476;28;20247;-79
2022/07/13 02:12:33;;;;;;;4.18;2.83;;;23.60;28.20;;;;;;5090641;28;20226;-78
2022/07/13 02:15:02;;;;;;;2.97;2.70;;;23.50;28.50;;;;;;5091287;28;20205;-80
2022/07/13 02:17:29;;;;;;;2.20;2.10;;;23.60;29.10;;;;;;5090959;28;20262;-80
2022/07/13 02:19:56;;;;;;;2.00;1.45;;;23.60;28.40;;;;;;5091228;28;20251;-80
2022/07/13 02:22:23;;;;;;;1.80;1.60;;;23.60;27.90;;;;;;5090694;28;20210;-80
2022/07/13 02:24:50;;;;;;;1.80;1.55;;;23.50;28.90;;;;;;5091181;28;20205;-79
2022/07/13 02:27:17;;;;;;;1.85;1.75;;;23.60;28.70;;;;;;5080451;28;20271;-80
2022/07/13 02:29:44;;;;;;;1.58;1.40;;;23.60;29.10;;;;;;5087488;28;20206;-72
2022/07/13 02:32:12;;;;;;;2.95;1.38;;;23.60;30.00;;;;;;5091342;28;20229;-80
2022/07/13 02:34:39;;;;;;;2.22;1.88;;;23.50;29.20;;;;;;5090830;28;20205;-79
2022/07/13 02:37:06;;;;;;;3.83;2.47;;;23.40;29.90;;;;;;5090957;28;20622;-79
2022/07/13 02:39:33;;;;;;;1.90;1.80;;;23.40;29.90;;;;;;5090465;28;20726;-79
2022/07/13 02:42:00;;;;;;;3.88;2.20;;;23.30;29.80;;;;;;5090663;28;20250;-79
2022/07/13 02:44:28;;;;;;;2.58;2.38;;;23.20;29.40;;;;;;5090809;28;20251;-79
2022/07/13 02:46:55;;;;;;;6.43;2.22;;;23.20;30.00;;;;;;5090446;28;20292;-79
2022/07/13 02:49:23;;;;;;;2.70;2.08;;;23.20;29.80;;;;;;5090532;28;20250;-79
2022/07/13 02:51:50;;;;;;;2.95;1.92;;;23.10;30.00;;;;;;5090693;28;20201;-80
2022/07/13 02:54:17;;;;;;;2.22;2.03;;;23.10;30.00;;;;;;5090141;28;20205;-79
2022/07/13 02:56:44;;;;;;;2.85;2.00;;;23.10;30.20;;;;;;5090985;28;20205;-70
2022/07/13 02:59:11;;;;;;;3.17;2.35;;;23.00;30.20;;;;;;5091251;28;20197;-80
2022/07/13 03:01:38;;;;;;;2.88;2.20;;;22.90;30.70;;;;;;5090081;28;20721;-80
2022/07/13 03:04:05;;;;;;;3.17;2.10;;;22.90;31.70;;;;;;5090443;28;20205;-81
2022/07/13 03:06:34;;;;;;;9.00;3.05;;;22.80;33.10;;;;;;5090155;28;20201;-79
2022/07/13 03:09:01;;;;;;;3.92;2.08;;;22.80;33.90;;;;;;5090273;28;20202;-80
2022/07/13 03:11:28;;;;;;;2.40;2.17;;;22.80;34.60;;;;;;5090326;28;20217;-78
2022/07/13 03:13:54;;;;;;;4.03;2.53;;;22.90;35.70;;;;;;5090529;28;20237;-79
2022/07/13 03:16:21;;;;;;;5.05;2.65;;;22.90;36.50;;;;;;5090199;28;20205;-80
2022/07/13 03:18:49;;;;;;;5.32;2.95;;;22.80;37.30;;;;;;5090867;28;20217;-76
2022/07/13 03:21:16;;;;;;;2.50;2.30;;;22.80;38.50;;;;;;5090344;28;20584;-71
2022/07/13 03:23:44;;;;;;;3.28;2.33;;;22.90;40.30;;;;;;5090693;28;20266;-78
2022/07/13 03:26:11;;;;;;;7.57;2.33;;;22.80;39.40;;;;;;5089242;28;20254;-78
2022/07/13 03:28:38;;;;;;;1.90;1.70;;;22.70;40.40;;;;;;5077660;28;20209;-76
2022/07/13 03:31:05;;;;;;;2.90;1.85;;;22.70;40.70;;;;;;5090489;28;20206;-79
2022/07/13 03:33:32;;;;;;;3.13;2.47;;;22.60;41.00;;;;;;5089823;28;20230;-74
2022/07/13 03:35:59;;;;;;;2.75;2.20;;;22.60;41.40;;;;;;5090447;28;20201;-80
2022/07/13 03:38:26;;;;;;;2.88;2.00;;;22.50;41.00;;;;;;5089798;28;20202;-78
2022/07/13 03:40:54;;;;;;;2.55;2.28;;;22.50;41.20;;;;;;5090638;28;20205;-78
2022/07/13 03:43:22;;;;;;;3.15;1.95;;;22.50;43.00;;;;;;5090029;28;20206;-78
2022/07/13 03:45:49;;;;;;;6.30;1.67;;;22.40;43.10;;;;;;5090465;28;20218;-80
2022/07/13 03:48:17;;;;;;;5.38;2.10;;;22.40;43.20;;;;;;5090015;28;20210;-72
2022/07/13 03:50:44;;;;;;;2.53;2.30;;;22.40;44.50;;;;;;5090508;28;20589;-71
2022/07/13 03:53:11;;;;;;;1.70;1.60;;;22.40;44.80;;;;;;5090797;28;20237;-78
2022/07/13 03:55:39;;;;;;;2.35;1.77;;;22.30;46.10;;;;;;5089882;28;20202;-79
2022/07/13 03:58:07;;;;;;;2.58;1.70;;;22.30;43.80;;;;;;5090445;28;20255;-77
2022/07/13 04:00:34;;;;;;;1.83;1.73;;;22.30;45.00;;;;;;5089450;28;20251;-74
2022/07/13 04:03:01;;;;;;;1.88;1.52;;;22.20;44.50;;;;;;5090112;28;20209;-73
2022/07/13 04:05:28;;;;;;;2.08;1.67;;;22.20;47.00;;;;;;5090343;28;20723;-78
2022/07/13 04:07:55;;;;;;;2.58;2.20;;;22.10;45.40;;;;;;5093856;28;20263;-77
2022/07/13 04:10:22;;;;;;;3.08;2.83;;;22.20;46.40;;;;;;5093422;28;20259;-73
2022/07/13 04:12:50;;;;;;;10.52;2.97;;;22.10;46.00;;;;;;5093739;28;20237;-80
2022/07/13 04:15:18;;;;;;;5.47;4.25;;;22.20;46.70;;;;;;5093183;28;20213;-72
2022/07/13 04:17:45;;;;;;;5.18;2.65;;;22.20;46.10;;;;;;5093476;28;20676;-71
2022/07/13 04:20:12;;;;;;;3.80;3.38;;;22.00;45.80;;;;;;5094058;28;20259;-70
2022/07/13 04:22:39;;;;;;;2.80;2.45;;;22.10;48.10;;;;;;5093409;28;20258;-70
2022/07/13 04:25:08;;;;;;;3.70;2.85;;;22.10;49.00;;;;;;5093568;28;20760;-72
2022/07/13 04:27:35;;;;;;;2.90;2.67;;;22.20;47.70;;;;;;5080015;28;20210;-71
2022/07/13 04:30:02;;;;;;;2.45;2.15;;;22.10;48.00;;;;;;5092154;28;20259;-77
2022/07/13 04:32:31;;;;;;;2.78;2.08;;;22.20;48.80;;;;;;5092970;28;20210;-73
2022/07/13 04:34:58;;;;;;;2.05;1.95;;;22.20;48.30;;;;;;5093197;28;20346;-72
2022/07/13 04:37:24;;;;;;;2.13;1.92;;;22.10;48.40;;;;;;5093057;28;20251;-72
2022/07/13 04:39:51;;;;;;;2.20;2.00;;;22.20;48.50;;;;;;5093266;28;20270;-75
2022/07/13 04:42:18;;;;;;;2.30;2.10;;;22.20;47.10;;;;;;5092831;28;20285;-73
2022/07/13 04:44:45;;;;;;;3.00;2.05;;;22.10;47.30;;;;;;5092629;28;20209;-73
2022/07/13 04:47:12;;;;;;;1.83;1.73;;;22.10;48.90;;;;;;5093490;28;20666;-76
2022/07/13 04:49:40;;;;;;;3.45;2.08;;;22.10;47.90;;;;;;5093199;28;20214;-74
2022/07/13 04:52:07;;;;;;;1.98;1.55;;;22.10;47.80;;;;;;5093016;28;20233;-71
2022/07/13 04:54:34;;;;;;;3.35;2.80;;;22.20;49.20;;;;;;5092398;28;20680;-70
2022/07/13 04:57:01;;;;;;;1.80;1.70;;;22.20;48.70;;;;;;5092455;28;20205;-79
2022/07/13 04:59:28;;;;;;;1.40;1.30;;;22.20;48.30;;;;;;5092409;28;20201;-71
2022/07/13 05:01:55;;;;;;;1.67;1.58;;;22.10;49.50;;;;;;5092168;28;20733;-71
2022/07/13 05:04:22;;;;;;;1.70;1.52;;;22.10;48.90;;;;;;5092785;28;20205;-76
2022/07/13 05:06:50;;;;;;;1.92;1.83;;;22.10;49.60;;;;;;5092869;28;20255;-76
2022/07/13 05:09:17;;;;;;;3.67;2.30;;;22.10;50.80;;;;;;5078277;28;20213;-76
2022/07/13 05:11:44;;;;;;;5.15;2.42;;;22.10;50.30;;;;;;5092343;28;20209;-73
2022/07/13 05:14:11;;;;;;;1.98;1.88;;;22.10;51.10;;;;;;5092807;28;20225;-79
2022/07/13 05:16:38;;;;;;;1.90;1.70;;;21.90;49.60;;;;;;5091602;28;20205;-78
2022/07/13 05:19:06;;;;;;;3.50;2.08;;;22.00;50.60;;;;;;5092152;28;20250;-78
2022/07/13 05:21:33;;;;;;;4.72;1.85;;;22.00;51.00;;;;;;5092093;28;20664;-77
2022/07/13 05:24:02;;;;;;;3.45;1.75;;;22.10;51.50;;;;;;5092483;28;20205;-71
2022/07/13 05:26:29;;;;;;;4.28;1.90;;;22.20;52.70;;;;;;5087976;28;20298;-76
2022/07/13 05:28:56;;;;;;;3.88;2.05;;;22.30;52.30;;;;;;5082293;28;20206;-79
2022/07/13 05:31:23;;;;;;;2.17;1.75;;;22.40;52.50;;;;;;5091603;28;20202;-79
2022/07/13 05:33:50;;;;;;;2.72;1.90;;;22.40;52.70;;;;;;5092019;28;20233;-79
2022/07/13 05:36:17;;;;;;;2.30;1.77;;;22.50;53.00;;;;;;5091830;28;20765;-80
2022/07/13 05:38:44;;;;;;;1.77;1.67;;;22.50;53.00;;;;;;5092407;28;20284;-70
2022/07/13 05:41:12;;;;;;;3.05;2.00;;;22.50;54.00;;;;;;5092016;28;20259;-80
2022/07/13 05:43:40;;;;;;;2.55;1.90;;;22.60;53.10;;;;;;5091574;28;20248;-81
2022/07/13 05:46:07;;;;;;;3.72;1.70;;;22.70;52.80;;;;;;5092215;28;20209;-80
2022/07/13 05:48:36;;;;;;;7.25;1.98;;;22.80;54.50;;;;;;5091365;28;20669;-80
2022/07/13 05:51:03;;;;;;;3.08;2.42;;;22.80;53.50;;;;;;5091959;28;20206;-80
2022/07/13 05:53:30;;;;;;;5.38;2.10;;;22.90;53.20;;;;;;5091170;28;20285;-79
2022/07/13 05:55:57;;;;;;;3.08;2.10;;;23.00;53.50;;;;;;5092003;28;20209;-80
2022/07/13 05:58:25;;;;;;;3.08;1.80;;;23.00;54.00;;;;;;5091234;28;20209;-81
2022/07/13 06:00:52;;;;;;;1.80;1.70;;;23.10;52.70;;;;;;5091648;28;20726;-78
2022/07/13 06:03:19;;;;;;;3.17;2.08;;;23.10;49.40;;;;;;5091283;28;20268;-81
2022/07/13 06:05:46;;;;;;;2.50;2.30;;;23.10;53.90;;;;;;5091497;28;20198;-81
2022/07/13 06:08:13;;;;;;;6.53;2.50;;;23.20;54.30;;;;;;5091748;28;20201;-80
2022/07/13 06:10:40;;;;;;;2.95;1.60;;;23.40;53.50;;;;;;5091117;28;20260;-80
2022/07/13 06:13:07;;;;;;;2.25;1.80;;;23.50;54.30;;;;;;5091423;28;20206;-80
2022/07/13 06:15:36;;;;;;;5.18;2.20;;;23.50;54.10;;;;;;5089182;28;20628;-81
2022/07/13 06:18:03;;;;;;;2.90;2.15;;;23.70;52.90;;;;;;5079416;28;20297;-81
2022/07/13 06:20:30;;;;;;;4.40;2.83;;;23.60;53.50;;;;;;5090558;28;20213;-81
2022/07/13 06:23:14;;;;;;;6.43;2.63;;;23.70;53.20;;;;;;5091402;28;20259;-80
2022/07/13 06:25:43;;;;;;;11.55;4.82;;;23.80;84.10;;;;;;5090861;28;20201;-79
2022/07/13 06:28:10;;;;;;;7.07;3.67;;;24.00;53.10;;;;;;5076756;28;20569;-80
2022/07/13 06:30:38;;;;;;;10.48;4.28;;;24.10;54.40;;;;;;5090770;28;20643;-80
2022/07/13 06:33:05;;;;;;;10.05;3.38;;;24.30;52.30;;;;;;5090692;28;20206;-78
2022/07/13 06:35:33;;;;;;;9.15;3.63;;;24.30;51.20;;;;;;5090996;28;20205;-77
2022/07/13 06:38:00;;;;;;;5.68;3.85;;;24.30;52.10;;;;;;5091307;28;20205;-78
2022/07/13 06:40:27;;;;;;;11.35;3.38;;;24.50;51.50;;;;;;5090659;28;20202;-79
2022/07/13 06:42:54;;;;;;;14.35;3.35;;;24.60;51.90;;;;;;5091198;28;20207;-81
2022/07/13 06:45:22;;;;;;;7.38;3.28;;;24.60;53.40;;;;;;5090398;28;20209;-80
2022/07/13 06:47:51;;;;;;;13.25;4.15;;;24.70;50.10;;;;;;5090736;28;20232;-80
2022/07/13 06:50:19;;;;;;;6.88;3.35;;;24.90;51.50;;;;;;5090374;28;20225;-79
2022/07/13 06:52:46;;;;;;;10.80;2.83;;;25.00;50.40;;;;;;5091071;28;20322;-79
2022/07/13 06:55:13;;;;;;;6.78;3.28;;;24.90;51.80;;;;;;5090783;28;20228;-78
2022/07/13 06:57:40;;;;;;;5.68;2.85;;;24.90;53.80;;;;;;5090776;28;20285;-80
2022/07/13 07:00:09;;;;;;;4.80;3.10;;;25.00;51.80;;;;;;5090424;28;20646;-80
2022/07/13 07:02:37;;;;;;;6.03;3.03;;;25.20;52.80;;;;;;5090539;28;20450;-71
2022/07/13 07:05:09;;;;;;;7.03;2.67;;;25.30;51.30;;;;;;5090980;28;20292;-81
2022/07/13 07:07:36;;;;;;;5.38;2.78;;;25.40;51.00;;;;;;5090403;28;20256;-81
2022/07/13 07:10:03;;;;;;;2.58;2.22;;;25.60;51.40;;;;;;5090483;28;20209;-81
2022/07/13 07:12:30;;;;;;;9.85;2.92;;;25.70;51.50;;;;;;5090066;28;20258;-80
2022/07/13 07:14:57;;;;;;;8.50;3.00;;;25.90;50.80;;;;;;5090616;28;20237;-81
2022/07/13 07:17:24;;;;;;;6.65;2.65;;;25.90;51.10;;;;;;5090135;28;20249;-80
2022/07/13 07:19:52;;;;;;;7.85;3.33;;;26.40;51.20;;;;;;5090766;28;20217;-78
2022/07/13 07:22:20;;;;;;;8.68;2.58;;;27.00;51.50;;;;;;5089977;28;20209;-80
2022/07/13 07:24:47;;;;;;;11.75;3.38;;;27.10;50.40;;;;;;5090424;28;20206;-80
2022/07/13 07:27:14;;;;;;;5.50;2.75;;;26.90;49.40;;;;;;5080335;28;20202;-74
2022/07/13 07:29:41;;;;;;;11.30;3.17;;;26.80;49.50;;;;;;5086503;28;20212;-80
2022/07/13 07:32:08;;;;;;;6.13;2.60;;;27.00;50.60;;;;;;5090753;28;20205;-80
2022/07/13 07:34:36;;;;;;;5.53;3.28;;;26.90;48.70;;;;;;5089995;28;20273;-80
2022/07/13 07:37:03;;;;;;;8.43;2.85;;;26.90;50.60;;;;;;5090304;28;20202;-80
2022/07/13 07:39:32;;;;;;;8.10;3.45;;;27.00;49.60;;;;;;5089907;28;20209;-81
2022/07/13 07:41:59;;;;;;;8.38;3.05;;;27.40;50.00;;;;;;5093811;28;20258;-81
2022/07/13 07:44:25;;;;;;;7.75;3.08;;;27.40;49.80;;;;;;5094234;28;20262;-80
2022/07/13 07:46:52;;;;;;;9.63;2.80;;;27.40;49.80;;;;;;5094106;28;20205;-79
2022/07/13 07:49:19;;;;;;;6.40;2.42;;;27.20;48.00;;;;;;5093864;28;20202;-80
2022/07/13 07:51:46;;;;;;;6.90;3.15;;;27.30;48.60;;;;;;5093900;28;20202;-80
2022/07/13 07:54:13;;;;;;;6.53;2.28;;;27.50;49.20;;;;;;5094280;28;20225;-78
2022/07/13 07:56:41;;;;;;;4.78;2.60;;;27.60;47.80;;;;;;5093611;28;20209;-79
2022/07/13 07:59:08;;;;;;;7.60;2.75;;;27.30;48.70;;;;;;5094128;28;20673;-81
2022/07/13 08:01:35;;;;;;;6.30;3.05;;;27.60;50.40;;;;;;5093652;28;20736;-74
2022/07/13 08:04:02;;;;;;;5.13;2.88;;;27.90;49.30;;;;;;5093709;28;20205;-80
2022/07/13 08:06:29;;;;;;;6.38;2.83;;;28.00;50.50;;;;;;5093230;28;20205;-80
2022/07/13 08:08:56;;;;;;;7.45;2.83;;;28.40;48.50;;;;;;5093534;28;20198;-78
2022/07/13 08:11:23;;;;;;;11.55;3.65;;;28.50;48.00;;;;;;5093551;28;20205;-78
2022/07/13 08:13:52;;;;;;;3.35;2.33;;;28.90;49.00;;;;;;5093607;28;20282;-80
2022/07/13 08:16:19;;;;;;;2.88;2.08;;;30.10;50.70;;;;;;5093408;28;20285;-80
2022/07/13 08:18:47;;;;;;;2.03;1.83;;;29.90;47.00;;;;;;5094246;28;20209;-77
2022/07/13 08:21:14;;;;;;;7.55;2.10;;;29.20;47.40;;;;;;5093458;28;20708;-71
2022/07/13 08:23:54;;;;;;;2.50;1.63;;;29.00;46.50;;;;;;5093984;28;20213;-78
2022/07/13 08:26:23;;;;;;;2.25;2.08;;;29.10;48.10;;;;;;5076576;28;20681;-80
2022/07/13 08:28:52;;;;;;;2.22;2.05;;;29.40;48.30;;;;;;5082245;28;20293;-80
2022/07/13 08:31:20;;;;;;;2.70;2.05;;;29.60;47.50;;;;;;5092953;28;20255;-80
2022/07/13 08:39:17;;;;;;;4.38;1.77;;;29.10;46.70;;;;;;5092797;28;20339;-77
2022/07/13 08:41:44;;;;;;;8.50;3.20;;;29.30;45.00;;;;;;5093363;28;20206;-80
2022/07/13 08:44:12;;;;;;;2.45;2.05;;;29.40;48.00;;;;;;5093494;28;20209;-78
2022/07/13 08:46:39;;;;;;;4.13;2.40;;;29.60;45.10;;;;;;5092456;28;20741;-79
2022/07/13 08:49:07;;;;;;;3.78;2.10;;;29.60;45.90;;;;;;5093384;28;20247;-80
2022/07/13 08:51:34;;;;;;;2.25;2.05;;;30.00;46.20;;;;;;5092337;28;20292;-77
2022/07/13 08:54:03;;;;;;;3.40;1.95;;;30.10;44.20;;;;;;5093173;28;20233;-79
2022/07/13 08:56:30;;;;;;;3.00;1.55;;;30.40;45.30;;;;;;5092641;28;20208;-81
2022/07/13 08:58:57;;;;;;;2.95;2.58;;;30.70;45.30;;;;;;5092764;28;20201;-81
2022/07/13 09:01:26;;;;;;;4.20;1.80;;;31.30;44.20;;;;;;5092576;28;20206;-80
2022/07/13 09:03:53;;;;;;;1.92;1.83;;;31.20;44.20;;;;;;5092643;28;20251;-77
2022/07/13 09:06:43;;;;;;;2.25;1.88;;;31.60;43.90;;;;;;5092672;28;20201;-76
2022/07/13 09:09:32;;;;;;;2.63;1.90;;;31.30;42.10;;;;;;5092955;28;20205;-75
2022/07/13 09:12:19;;;;;;;1.85;1.75;;;31.90;46.20;;;;;;5092602;28;20252;-80
2022/07/13 09:14:53;;;;;;;1.67;1.33;;;32.50;46.10;;;;;;5092643;28;20262;-74
2022/07/13 09:17:35;;;;;;;4.32;2.40;;;33.30;45.90;;;;;;5092085;28;20232;-75
2022/07/13 09:20:17;;;;;;;4.07;1.92;;;33.60;46.10;;;;;;5092421;28;20650;-72
2022/07/13 09:22:49;;;;;;;1.70;1.55;;;34.60;48.00;;;;;;5092550;28;20205;-70
2022/07/13 09:25:26;;;;;;;2.92;1.10;;;34.50;48.90;;;;;;5092650;28;20201;-71
2022/07/13 09:27:53;;;;;;;5.63;1.58;;;34.90;48.80;;;;;;5077794;28;20295;-78
2022/07/13 09:30:25;;;;;;;3.80;1.20;;;33.90;44.10;;;;;;5092042;28;20228;-82
2022/07/13 09:32:55;;;;;;;1.48;1.05;;;33.80;43.90;;;;;;5091866;28;20212;-81
2022/07/13 09:35:41;;;;;;;1.30;1.20;;;34.80;46.80;;;;;;5091839;28;20240;-81
2022/07/13 09:38:08;;;;;;;1.50;1.38;;;35.30;49.70;;;;;;5092154;28;20258;-78
2022/07/13 09:40:35;;;;;;;4.65;1.67;;;37.60;52.80;;;;;;5091653;28;20237;-82
2022/07/13 09:48:32;;;;;;;1.90;1.80;;;41.00;69.80;;;;;;5091307;28;20219;-78
2022/07/13 09:50:59;;;;;;;2.45;1.70;;;41.30;83.70;;;;;;5091970;28;20254;-82
2022/07/13 09:53:28;;;;;;;4.00;1.30;;;42.40;87.90;;;;;;5091498;28;20212;-82
2022/07/13 09:55:57;;;;;;;2.78;1.10;;;43.00;82.70;;;;;;5091946;28;20238;-82
2022/07/13 09:58:28;;;;;;;1.50;1.35;;;42.60;78.00;;;;;;5091630;28;20623;-76
2022/07/13 10:00:57;;;;;;;6.15;2.35;;;39.90;67.30;;;;;;5091811;28;20201;-76
2022/07/13 10:03:24;;;;;;;5.28;1.95;;;39.40;58.60;;;;;;5090237;28;20291;-73
2022/07/13 10:05:53;;;;;;;1.27;1.27;;;39.40;57.50;;;;;;5091496;28;20633;-72
2022/07/13 10:08:21;;;;;;;1.58;1.38;;;38.60;56.60;;;;;;5091207;28;20672;-76
2022/07/13 10:10:49;;;;;;;1.48;1.38;;;38.70;56.20;;;;;;5091130;28;20617;-83
2022/07/13 10:13:17;;;;;;;2.50;1.63;;;40.40;59.00;;;;;;5091113;28;20212;-71
2022/07/13 10:15:44;;;;;;;1.67;1.52;;;41.40;65.00;;;;;;5091618;28;20652;-81
2022/07/13 10:18:17;;;;;;;1.85;1.20;;;43.10;72.50;;;;;;5091484;28;20201;-77
2022/07/13 10:20:51;;;;;;;2.42;1.50;;;44.40;75.70;;;;;;5091228;28;20204;-72
2022/07/13 10:23:33;;;;;;;1.70;1.13;;;42.70;66.80;;;;;;5090969;28;20205;-80
2022/07/13 10:26:00;;;;;;;1.58;1.48;;;44.40;80.30;;;;;;5091008;28;20216;-77
2022/07/13 10:28:27;;;;;;;2.42;1.55;;;42.10;69.10;;;;;;5076362;28;20743;-75
2022/07/13 10:30:54;;;;;;;3.33;1.52;;;41.90;69.30;;;;;;5091201;28;20209;-78
2022/07/13 10:33:24;;;;;;;1.38;1.15;;;43.50;76.70;;;;;;5090557;28;20197;-75
2022/07/13 10:35:53;;;;;;;2.40;1.42;;;43.80;64.10;;;;;;5090975;28;20707;-77
2022/07/13 10:38:22;;;;;;;2.72;1.33;;;40.80;47.20;;;;;;5090621;28;20665;-81
2022/07/13 10:40:50;;;;;;;1.92;1.83;;;42.50;59.50;;;;;;5091087;28;20211;-80
2022/07/13 10:43:18;;;;;;;2.85;1.50;;;41.20;48.00;;;;;;5090671;28;20208;-79
2022/07/13 10:45:48;;;;;;;1.70;1.60;;;37.70;38.50;;;;;;5090765;28;20759;-78
2022/07/13 10:48:41;;;;;;;2.08;1.63;;;36.10;33.50;;;;;;5090795;28;20197;-80
2022/07/13 10:51:19;;;;;;;1.48;1.30;;;35.00;30.50;;;;;;5090756;28;20274;-77
2022/07/13 10:54:11;;;;;;;2.45;1.73;;;34.50;29.00;;;;;;5090916;28;20279;-80
2022/07/13 10:57:20;;;;;;;2.22;1.65;;;34.60;28.40;;;;;;5090601;28;20252;-78
2022/07/13 10:59:49;;;;;;;1.83;1.73;;;34.40;27.30;;;;;;5086933;28;20254;-82
2022/07/13 11:02:46;;;;;;;2.58;1.38;;;34.50;27.30;;;;;;5090321;28;20197;-71
2022/07/13 11:05:14;;;;;;;1.30;1.20;;;34.50;27.00;;;;;;5090940;28;20741;-71
2022/07/13 11:07:43;;;;;;;2.10;1.90;;;34.90;28.10;;;;;;5091033;28;20209;-76
2022/07/13 11:10:23;;;;;;;2.53;1.63;;;35.20;29.20;;;;;;5090893;28;20208;-79
2022/07/13 11:13:00;;;;;;;2.90;1.70;;;35.30;28.30;;;;;;5077712;28;20616;-81
2022/07/13 11:15:42;;;;;;;2.10;1.48;;;35.10;27.90;;;;;;5092388;28;20723;-80
2022/07/13 11:18:31;;;;;;;2.75;1.83;;;35.10;28.90;;;;;;5095101;28;20686;-80
2022/07/13 11:21:03;;;;;;;2.13;2.03;;;35.20;28.30;;;;;;5091471;28;20213;-79
2022/07/13 11:26:32;;;;;;;4.13;2.45;;;34.80;26.60;;;;;;5092632;28;20207;-70
2022/07/13 11:29:11;;;;;;;1.95;1.67;;;34.50;25.80;;;;;;5084484;28;20274;-80
2022/07/13 11:31:38;;;;;;;2.45;1.65;;;34.60;25.20;;;;;;5094312;28;20270;-80
2022/07/13 11:34:05;;;;;;;3.53;1.90;;;34.80;25.00;;;;;;5094795;28;20208;-79
2022/07/13 11:36:33;;;;;;;2.53;2.28;;;35.10;26.50;;;;;;5093966;28;20712;-80
2022/07/13 11:38:59;;;;;;;3.03;2.78;;;35.00;25.70;;;;;;5094782;28;20205;-78
2022/07/13 11:41:27;;;;;;;2.25;2.13;;;35.10;26.80;;;;;;5093678;28;20668;-81
2022/07/13 11:43:54;;;;;;;2.28;2.05;;;35.00;24.70;;;;;;5094323;28;20219;-78
2022/07/13 11:46:27;;;;;;;3.50;2.70;;;35.00;25.40;;;;;;5094156;28;20209;-81
2022/07/13 11:49:02;;;;;;;4.43;2.40;;;35.10;25.60;;;;;;5094422;28;20652;-78
2022/07/13 11:51:29;;;;;;;3.80;2.85;;;35.30;26.20;;;;;;5093707;28;20210;-81
2022/07/13 11:53:56;;;;;;;3.13;2.60;;;35.00;25.20;;;;;;5094248;28;20205;-82
2022/07/13 11:56:23;;;;;;;2.25;2.05;;;35.50;26.90;;;;;;5093686;28;20742;-79
2022/07/13 11:58:50;;;;;;;3.35;3.15;;;35.80;27.10;;;;;;5093693;28;20204;-81
2022/07/13 12:01:18;;;;;;;4.07;2.88;;;35.70;27.00;;;;;;5093918;28;20208;-80
2022/07/13 12:03:50;;;;;;;2.97;2.78;;;35.50;53.10;;;;;;5093857;28;20608;-79
2022/07/13 12:06:18;;;;;;;3.00;2.80;;;35.70;26.80;;;;;;5093476;28;20250;-81
2022/07/13 12:08:46;;;;;;;2.88;2.67;;;36.10;27.10;;;;;;5093681;28;20204;-80
2022/07/13 12:11:16;;;;;;;4.47;2.67;;;36.20;27.10;;;;;;5094269;28;20209;-75
2022/07/13 12:13:45;;;;;;;3.33;3.03;;;36.40;27.80;;;;;;5093712;28;20214;-73
2022/07/13 12:16:13;;;;;;;2.88;2.63;;;36.30;27.70;;;;;;5093954;28;20282;-77
2022/07/13 12:19:08;;;;;;;3.00;2.70;;;36.20;27.50;;;;;;5093704;28;20634;-77
2022/07/13 12:21:35;;;;;;;3.53;3.22;;;36.20;27.40;;;;;;5082219;28;20550;-75
2022/07/13 12:24:02;;;;;;;3.08;2.88;;;36.30;27.30;;;;;;5093435;28;20621;-72
2022/07/13 12:26:30;;;;;;;3.55;3.35;;;36.50;27.90;;;;;;5088721;28;20258;-74
2022/07/13 12:28:57;;;;;;;3.47;3.22;;;36.20;53.90;;;;;;5083053;28;20722;-74
2022/07/13 12:31:25;;;;;;;4.28;3.70;;;36.10;27.40;;;;;;5092769;28;20266;-70
2022/07/13 12:33:53;;;;;;;3.60;3.30;;;35.70;25.90;;;;;;5093732;28;20237;-77
2022/07/13 12:36:25;;;;;;;3.63;3.33;;;36.20;25.90;;;;;;5092872;28;20261;-79
2022/07/13 12:38:59;;;;;;;3.95;3.75;;;36.40;27.10;;;;;;5093123;28;20235;-73
2022/07/13 12:41:28;;;;;;;5.38;3.63;;;36.50;26.70;;;;;;5092696;28;20235;-80
2022/07/13 12:43:57;;;;;;;3.97;3.67;;;36.70;26.50;;;;;;5093211;28;20212;-77
2022/07/13 12:46:24;;;;;;;3.67;3.47;;;36.70;26.40;;;;;;5092969;28;20209;-73
2022/07/13 12:49:00;;;;;;;4.43;4.03;;;36.40;26.50;;;;;;5093180;28;20288;-78
2022/07/13 12:51:51;;;;;;;4.00;3.80;;;36.20;24.50;;;;;;5092457;28;20200;-80
2022/07/13 12:54:39;;;;;;;4.65;4.28;;;36.00;24.10;;;;;;5081010;28;20287;-80
2022/07/13 12:57:10;;;;;;;4.80;4.50;;;36.10;25.30;;;;;;5092581;28;20719;-80
2022/07/13 12:59:38;;;;;;;4.30;4.00;;;36.10;23.90;;;;;;5092775;28;20294;-80
2022/07/13 13:02:05;;;;;;;4.43;4.18;;;35.80;22.70;;;;;;5092684;28;20672;-78
2022/07/13 13:04:33;;;;;;;4.70;4.40;;;35.90;23.60;;;;;;5092364;28;20201;-77
2022/07/13 13:07:02;;;;;;;4.68;4.38;;;36.20;24.10;;;;;;5092348;28;20200;-78
2022/07/13 13:09:29;;;;;;;4.47;4.00;;;36.20;22.30;;;;;;5092720;28;20208;-77